sensor_id;sensor_type;location;lat;lon;timestamp;P1;durP1;ratioP1;P2;durP2;ratioP2
65182;SDS011;51771;51.068;-1.780;2023-07-31T00:00:57;3.00;;;0.93;;
65182;SDS011;51771;51.068;-1.780;2023-07-31T00:03:23;5.88;;;1.45;;
65182;SDS011;51771;51.068;-1.780;2023-07-31T00:05:48;4.37;;;1.10;;
65182;SDS011;51771;51.068;-1.780;2023-07-31T00:08:13;4.13;;;1.30;;
65182;SDS011;51771;51.068;-1.780;2023-07-31T00:10:38;4.43;;;1.40;;
65182;SDS011;51771;51.068;-1.780;2023-07-31T00:13:03;3.67;;;1.27;;
65182;SDS011;51771;51.068;-1.780;2023-07-31T00:15:29;3.67;;;1.43;;
65182;SDS011;51771;51.068;-1.780;2023-07-31T00:17:54;6.72;;;1.92;;
65182;SDS011;51771;51.068;-1.780;2023-07-31T00:20:19;4.72;;;1.40;;
65182;SDS011;51771;51.068;-1.780;2023-07-31T00:22:44;6.63;;;1.47;;
65182;SDS011;51771;51.068;-1.780;2023-07-31T00:25:10;6.17;;;1.40;;
65182;SDS011;51771;51.068;-1.780;2023-07-31T00:27:35;7.78;;;2.10;;
65182;SDS011;51771;51.068;-1.780;2023-07-31T00:30:00;7.20;;;1.10;;
65182;SDS011;51771;51.068;-1.780;2023-07-31T00:32:25;5.35;;;1.73;;
65182;SDS011;51771;51.068;-1.780;2023-07-31T00:34:51;8.53;;;2.57;;
65182;SDS011;51771;51.068;-1.780;2023-07-31T00:37:16;7.43;;;1.65;;
65182;SDS011;51771;51.068;-1.780;2023-07-31T00:39:41;7.23;;;1.90;;
65182;SDS011;51771;51.068;-1.780;2023-07-31T00:42:06;10.37;;;2.40;;
65182;SDS011;51771;51.068;-1.780;2023-07-31T00:44:32;7.47;;;2.17;;
65182;SDS011;51771;51.068;-1.780;2023-07-31T00:46:57;8.68;;;2.50;;
65182;SDS011;51771;51.068;-1.780;2023-07-31T00:49:24;8.20;;;2.38;;
65182;SDS011;51771;51.068;-1.780;2023-07-31T00:51:49;7.80;;;2.35;;
65182;SDS011;51771;51.068;-1.780;2023-07-31T00:54:14;8.07;;;2.90;;
65182;SDS011;51771;51.068;-1.780;2023-07-31T00:56:40;9.30;;;2.17;;
65182;SDS011;51771;51.068;-1.780;2023-07-31T00:59:05;7.35;;;2.17;;
65182;SDS011;51771;51.068;-1.780;2023-07-31T01:01:31;5.75;;;2.13;;
65182;SDS011;51771;51.068;-1.780;2023-07-31T01:03:56;15.27;;;2.50;;
65182;SDS011;51771;51.068;-1.780;2023-07-31T01:06:33;8.52;;;2.35;;
65182;SDS011;51771;51.068;-1.780;2023-07-31T01:11:31;6.25;;;1.90;;
65182;SDS011;51771;51.068;-1.780;2023-07-31T01:13:58;10.00;;;1.88;;
65182;SDS011;51771;51.068;-1.780;2023-07-31T01:16:24;5.05;;;1.65;;
65182;SDS011;51771;51.068;-1.780;2023-07-31T01:18:50;7.97;;;1.67;;
65182;SDS011;51771;51.068;-1.780;2023-07-31T01:21:23;8.00;;;1.85;;
65182;SDS011;51771;51.068;-1.780;2023-07-31T01:26:23;7.57;;;1.92;;
65182;SDS011;51771;51.068;-1.780;2023-07-31T01:28:54;10.05;;;2.40;;
65182;SDS011;51771;51.068;-1.780;2023-07-31T01:31:21;7.10;;;1.55;;
65182;SDS011;51771;51.068;-1.780;2023-07-31T01:33:47;6.93;;;1.40;;
65182;SDS011;51771;51.068;-1.780;2023-07-31T01:36:13;6.47;;;1.75;;
65182;SDS011;51771;51.068;-1.780;2023-07-31T01:38:38;9.13;;;2.03;;
65182;SDS011;51771;51.068;-1.780;2023-07-31T01:41:04;5.13;;;1.33;;
65182;SDS011;51771;51.068;-1.780;2023-07-31T01:43:29;7.72;;;1.80;;
65182;SDS011;51771;51.068;-1.780;2023-07-31T01:45:54;5.05;;;1.02;;
65182;SDS011;51771;51.068;-1.780;2023-07-31T01:48:19;5.00;;;1.53;;
65182;SDS011;51771;51.068;-1.780;2023-07-31T01:50:45;5.40;;;1.60;;
65182;SDS011;51771;51.068;-1.780;2023-07-31T01:53:10;3.50;;;1.13;;
65182;SDS011;51771;51.068;-1.780;2023-07-31T01:55:37;6.40;;;1.63;;
65182;SDS011;51771;51.068;-1.780;2023-07-31T01:58:02;6.00;;;1.60;;
65182;SDS011;51771;51.068;-1.780;2023-07-31T02:00:27;10.52;;;1.85;;
65182;SDS011;51771;51.068;-1.780;2023-07-31T02:02:52;5.63;;;1.73;;
65182;SDS011;51771;51.068;-1.780;2023-07-31T02:05:18;6.43;;;1.43;;
65182;SDS011;51771;51.068;-1.780;2023-07-31T02:07:43;6.95;;;2.00;;
65182;SDS011;51771;51.068;-1.780;2023-07-31T02:10:08;4.73;;;1.33;;
65182;SDS011;51771;51.068;-1.780;2023-07-31T02:12:33;5.15;;;1.33;;
65182;SDS011;51771;51.068;-1.780;2023-07-31T02:14:59;7.85;;;1.88;;
65182;SDS011;51771;51.068;-1.780;2023-07-31T02:17:24;8.88;;;1.85;;
65182;SDS011;51771;51.068;-1.780;2023-07-31T02:19:50;7.05;;;1.65;;
65182;SDS011;51771;51.068;-1.780;2023-07-31T02:22:16;7.22;;;2.03;;
65182;SDS011;51771;51.068;-1.780;2023-07-31T02:24:41;8.85;;;1.42;;
65182;SDS011;51771;51.068;-1.780;2023-07-31T02:27:06;6.60;;;2.08;;
65182;SDS011;51771;51.068;-1.780;2023-07-31T02:29:31;5.47;;;1.50;;
65182;SDS011;51771;51.068;-1.780;2023-07-31T02:31:57;4.07;;;1.33;;
65182;SDS011;51771;51.068;-1.780;2023-07-31T02:34:22;8.80;;;1.65;;
65182;SDS011;51771;51.068;-1.780;2023-07-31T02:36:47;5.35;;;1.45;;
65182;SDS011;51771;51.068;-1.780;2023-07-31T02:39:12;3.70;;;1.37;;
65182;SDS011;51771;51.068;-1.780;2023-07-31T02:41:38;8.43;;;1.47;;
65182;SDS011;51771;51.068;-1.780;2023-07-31T02:44:03;9.27;;;1.73;;
65182;SDS011;51771;51.068;-1.780;2023-07-31T02:46:28;5.63;;;1.73;;
65182;SDS011;51771;51.068;-1.780;2023-07-31T02:48:53;7.35;;;1.55;;
65182;SDS011;51771;51.068;-1.780;2023-07-31T02:51:19;3.13;;;1.03;;
65182;SDS011;51771;51.068;-1.780;2023-07-31T02:53:46;5.20;;;1.20;;
65182;SDS011;51771;51.068;-1.780;2023-07-31T02:56:11;3.90;;;1.30;;
65182;SDS011;51771;51.068;-1.780;2023-07-31T02:58:36;5.43;;;1.63;;
65182;SDS011;51771;51.068;-1.780;2023-07-31T03:01:01;4.27;;;1.33;;
65182;SDS011;51771;51.068;-1.780;2023-07-31T03:03:27;9.32;;;2.03;;
65182;SDS011;51771;51.068;-1.780;2023-07-31T03:05:52;9.37;;;2.20;;
65182;SDS011;51771;51.068;-1.780;2023-07-31T03:08:18;7.25;;;1.98;;
65182;SDS011;51771;51.068;-1.780;2023-07-31T03:10:43;10.32;;;1.63;;
65182;SDS011;51771;51.068;-1.780;2023-07-31T03:13:08;8.57;;;1.67;;
65182;SDS011;51771;51.068;-1.780;2023-07-31T03:15:33;5.27;;;1.50;;
65182;SDS011;51771;51.068;-1.780;2023-07-31T03:17:59;5.17;;;1.40;;
65182;SDS011;51771;51.068;-1.780;2023-07-31T03:20:24;5.83;;;1.73;;
65182;SDS011;51771;51.068;-1.780;2023-07-31T03:22:49;10.05;;;1.35;;
65182;SDS011;51771;51.068;-1.780;2023-07-31T03:25:14;7.70;;;1.53;;
65182;SDS011;51771;51.068;-1.780;2023-07-31T03:27:40;6.70;;;2.63;;
65182;SDS011;51771;51.068;-1.780;2023-07-31T03:30:05;3.57;;;1.37;;
65182;SDS011;51771;51.068;-1.780;2023-07-31T03:32:31;8.55;;;1.30;;
65182;SDS011;51771;51.068;-1.780;2023-07-31T03:34:57;9.35;;;1.50;;
65182;SDS011;51771;51.068;-1.780;2023-07-31T03:37:22;5.03;;;1.60;;
65182;SDS011;51771;51.068;-1.780;2023-07-31T03:39:47;6.15;;;1.60;;
65182;SDS011;51771;51.068;-1.780;2023-07-31T03:42:12;7.53;;;1.73;;
65182;SDS011;51771;51.068;-1.780;2023-07-31T03:44:37;5.37;;;1.73;;
65182;SDS011;51771;51.068;-1.780;2023-07-31T03:47:03;4.43;;;1.33;;
65182;SDS011;51771;51.068;-1.780;2023-07-31T03:49:28;4.10;;;1.30;;
65182;SDS011;51771;51.068;-1.780;2023-07-31T03:51:53;9.90;;;1.30;;
65182;SDS011;51771;51.068;-1.780;2023-07-31T03:54:19;3.65;;;1.23;;
65182;SDS011;51771;51.068;-1.780;2023-07-31T03:56:44;4.23;;;1.37;;
65182;SDS011;51771;51.068;-1.780;2023-07-31T03:59:09;7.27;;;1.70;;
65182;SDS011;51771;51.068;-1.780;2023-07-31T04:01:34;3.80;;;1.33;;
65182;SDS011;51771;51.068;-1.780;2023-07-31T04:03:59;7.85;;;1.88;;
65182;SDS011;51771;51.068;-1.780;2023-07-31T04:06:25;9.80;;;1.30;;
65182;SDS011;51771;51.068;-1.780;2023-07-31T04:08:50;4.07;;;1.27;;
65182;SDS011;51771;51.068;-1.780;2023-07-31T04:11:15;8.63;;;1.77;;
65182;SDS011;51771;51.068;-1.780;2023-07-31T04:13:40;5.88;;;1.17;;
65182;SDS011;51771;51.068;-1.780;2023-07-31T04:16:06;5.07;;;1.40;;
65182;SDS011;51771;51.068;-1.780;2023-07-31T04:18:31;7.23;;;2.13;;
65182;SDS011;51771;51.068;-1.780;2023-07-31T04:20:57;4.57;;;1.75;;
65182;SDS011;51771;51.068;-1.780;2023-07-31T04:23:26;3.30;;;1.35;;
65182;SDS011;51771;51.068;-1.780;2023-07-31T04:25:51;7.53;;;0.95;;
65182;SDS011;51771;51.068;-1.780;2023-07-31T04:28:16;5.70;;;1.30;;
65182;SDS011;51771;51.068;-1.780;2023-07-31T04:30:42;6.45;;;0.90;;
65182;SDS011;51771;51.068;-1.780;2023-07-31T04:33:07;5.75;;;1.98;;
65182;SDS011;51771;51.068;-1.780;2023-07-31T04:35:32;2.40;;;0.98;;
65182;SDS011;51771;51.068;-1.780;2023-07-31T04:37:58;8.20;;;1.77;;
65182;SDS011;51771;51.068;-1.780;2023-07-31T04:40:23;5.57;;;1.33;;
65182;SDS011;51771;51.068;-1.780;2023-07-31T04:42:48;5.43;;;0.95;;
65182;SDS011;51771;51.068;-1.780;2023-07-31T04:45:13;7.60;;;1.80;;
65182;SDS011;51771;51.068;-1.780;2023-07-31T04:47:39;6.30;;;1.02;;
65182;SDS011;51771;51.068;-1.780;2023-07-31T04:50:04;4.78;;;1.13;;
65182;SDS011;51771;51.068;-1.780;2023-07-31T04:52:30;5.47;;;1.08;;
65182;SDS011;51771;51.068;-1.780;2023-07-31T04:54:55;4.03;;;1.23;;
65182;SDS011;51771;51.068;-1.780;2023-07-31T04:57:20;5.47;;;1.43;;
65182;SDS011;51771;51.068;-1.780;2023-07-31T04:59:45;6.53;;;1.07;;
65182;SDS011;51771;51.068;-1.780;2023-07-31T05:02:11;2.00;;;0.90;;
65182;SDS011;51771;51.068;-1.780;2023-07-31T05:04:37;6.78;;;1.30;;
65182;SDS011;51771;51.068;-1.780;2023-07-31T05:07:02;3.77;;;1.23;;
65182;SDS011;51771;51.068;-1.780;2023-07-31T05:09:27;6.05;;;1.55;;
65182;SDS011;51771;51.068;-1.780;2023-07-31T05:11:52;1.47;;;0.60;;
65182;SDS011;51771;51.068;-1.780;2023-07-31T05:14:18;3.70;;;0.87;;
65182;SDS011;51771;51.068;-1.780;2023-07-31T05:16:43;3.37;;;1.00;;
65182;SDS011;51771;51.068;-1.780;2023-07-31T05:19:08;2.85;;;1.30;;
65182;SDS011;51771;51.068;-1.780;2023-07-31T05:21:33;4.30;;;1.13;;
65182;SDS011;51771;51.068;-1.780;2023-07-31T05:23:59;5.07;;;1.40;;
65182;SDS011;51771;51.068;-1.780;2023-07-31T05:26:24;4.30;;;0.90;;
65182;SDS011;51771;51.068;-1.780;2023-07-31T05:28:49;1.70;;;0.55;;
65182;SDS011;51771;51.068;-1.780;2023-07-31T05:31:14;4.88;;;1.23;;
65182;SDS011;51771;51.068;-1.780;2023-07-31T05:33:40;5.00;;;1.17;;
65182;SDS011;51771;51.068;-1.780;2023-07-31T05:36:05;3.43;;;1.07;;
65182;SDS011;51771;51.068;-1.780;2023-07-31T05:38:33;4.50;;;1.55;;
65182;SDS011;51771;51.068;-1.780;2023-07-31T05:40:58;4.22;;;1.33;;
65182;SDS011;51771;51.068;-1.780;2023-07-31T05:43:24;4.53;;;1.30;;
65182;SDS011;51771;51.068;-1.780;2023-07-31T05:45:49;5.32;;;1.17;;
65182;SDS011;51771;51.068;-1.780;2023-07-31T05:48:14;6.33;;;1.97;;
65182;SDS011;51771;51.068;-1.780;2023-07-31T05:50:39;5.83;;;1.50;;
65182;SDS011;51771;51.068;-1.780;2023-07-31T05:53:05;4.43;;;1.20;;
65182;SDS011;51771;51.068;-1.780;2023-07-31T05:55:30;4.45;;;0.88;;
65182;SDS011;51771;51.068;-1.780;2023-07-31T05:57:56;4.33;;;1.20;;
65182;SDS011;51771;51.068;-1.780;2023-07-31T06:00:22;4.22;;;1.17;;
65182;SDS011;51771;51.068;-1.780;2023-07-31T06:02:47;3.33;;;0.90;;
65182;SDS011;51771;51.068;-1.780;2023-07-31T06:05:12;2.90;;;0.98;;
65182;SDS011;51771;51.068;-1.780;2023-07-31T06:07:38;2.42;;;0.68;;
65182;SDS011;51771;51.068;-1.780;2023-07-31T06:10:03;5.90;;;1.27;;
65182;SDS011;51771;51.068;-1.780;2023-07-31T06:12:33;4.72;;;1.20;;
65182;SDS011;51771;51.068;-1.780;2023-07-31T06:14:59;5.32;;;1.40;;
65182;SDS011;51771;51.068;-1.780;2023-07-31T06:17:24;2.15;;;0.75;;
65182;SDS011;51771;51.068;-1.780;2023-07-31T06:19:51;10.15;;;1.58;;
65182;SDS011;51771;51.068;-1.780;2023-07-31T06:22:16;3.65;;;1.20;;
65182;SDS011;51771;51.068;-1.780;2023-07-31T06:24:41;4.57;;;1.17;;
65182;SDS011;51771;51.068;-1.780;2023-07-31T06:27:07;3.85;;;1.20;;
65182;SDS011;51771;51.068;-1.780;2023-07-31T06:29:32;4.70;;;1.25;;
65182;SDS011;51771;51.068;-1.780;2023-07-31T06:31:57;7.53;;;1.20;;
65182;SDS011;51771;51.068;-1.780;2023-07-31T06:34:23;4.03;;;1.13;;
65182;SDS011;51771;51.068;-1.780;2023-07-31T06:36:48;2.78;;;0.93;;
65182;SDS011;51771;51.068;-1.780;2023-07-31T06:39:13;5.43;;;1.30;;
65182;SDS011;51771;51.068;-1.780;2023-07-31T06:41:39;4.95;;;1.58;;
65182;SDS011;51771;51.068;-1.780;2023-07-31T06:44:04;6.13;;;0.67;;
65182;SDS011;51771;51.068;-1.780;2023-07-31T06:46:29;4.87;;;1.00;;
65182;SDS011;51771;51.068;-1.780;2023-07-31T06:48:55;5.10;;;1.27;;
65182;SDS011;51771;51.068;-1.780;2023-07-31T06:51:20;4.07;;;1.33;;
65182;SDS011;51771;51.068;-1.780;2023-07-31T06:53:45;2.67;;;0.73;;
65182;SDS011;51771;51.068;-1.780;2023-07-31T06:56:11;4.50;;;1.13;;
65182;SDS011;51771;51.068;-1.780;2023-07-31T06:58:36;4.97;;;1.43;;
65182;SDS011;51771;51.068;-1.780;2023-07-31T07:01:01;3.40;;;0.87;;
65182;SDS011;51771;51.068;-1.780;2023-07-31T07:03:26;3.10;;;1.10;;
65182;SDS011;51771;51.068;-1.780;2023-07-31T07:05:52;4.22;;;1.10;;
65182;SDS011;51771;51.068;-1.780;2023-07-31T07:08:17;3.17;;;0.87;;
65182;SDS011;51771;51.068;-1.780;2023-07-31T07:10:42;2.58;;;0.93;;
65182;SDS011;51771;51.068;-1.780;2023-07-31T07:13:07;4.53;;;1.15;;
65182;SDS011;51771;51.068;-1.780;2023-07-31T07:15:33;3.47;;;0.82;;
65182;SDS011;51771;51.068;-1.780;2023-07-31T07:17:58;1.50;;;0.47;;
65182;SDS011;51771;51.068;-1.780;2023-07-31T07:20:23;3.73;;;0.83;;
65182;SDS011;51771;51.068;-1.780;2023-07-31T07:22:49;1.52;;;0.50;;
65182;SDS011;51771;51.068;-1.780;2023-07-31T07:25:14;1.55;;;0.47;;
65182;SDS011;51771;51.068;-1.780;2023-07-31T07:27:39;3.60;;;0.85;;
65182;SDS011;51771;51.068;-1.780;2023-07-31T07:30:05;1.98;;;0.57;;
65182;SDS011;51771;51.068;-1.780;2023-07-31T07:32:30;9.02;;;1.00;;
65182;SDS011;51771;51.068;-1.780;2023-07-31T07:34:55;4.33;;;1.00;;
65182;SDS011;51771;51.068;-1.780;2023-07-31T07:37:21;2.13;;;0.60;;
65182;SDS011;51771;51.068;-1.780;2023-07-31T07:39:46;7.70;;;1.25;;
65182;SDS011;51771;51.068;-1.780;2023-07-31T07:42:12;1.63;;;0.70;;
65182;SDS011;51771;51.068;-1.780;2023-07-31T07:44:37;3.10;;;1.10;;
65182;SDS011;51771;51.068;-1.780;2023-07-31T07:47:02;1.93;;;0.60;;
65182;SDS011;51771;51.068;-1.780;2023-07-31T07:49:27;2.17;;;0.63;;
65182;SDS011;51771;51.068;-1.780;2023-07-31T07:51:53;2.50;;;0.60;;
65182;SDS011;51771;51.068;-1.780;2023-07-31T07:54:18;1.47;;;0.50;;
65182;SDS011;51771;51.068;-1.780;2023-07-31T07:56:45;2.15;;;0.52;;
65182;SDS011;51771;51.068;-1.780;2023-07-31T07:59:10;2.80;;;0.90;;
65182;SDS011;51771;51.068;-1.780;2023-07-31T08:01:35;1.07;;;0.60;;
65182;SDS011;51771;51.068;-1.780;2023-07-31T08:04:00;2.05;;;0.70;;
65182;SDS011;51771;51.068;-1.780;2023-07-31T08:06:26;2.45;;;0.70;;
65182;SDS011;51771;51.068;-1.780;2023-07-31T08:08:51;2.28;;;0.55;;
65182;SDS011;51771;51.068;-1.780;2023-07-31T08:11:16;6.82;;;0.90;;
65182;SDS011;51771;51.068;-1.780;2023-07-31T08:13:41;1.08;;;0.32;;
65182;SDS011;51771;51.068;-1.780;2023-07-31T08:16:07;1.75;;;0.68;;
65182;SDS011;51771;51.068;-1.780;2023-07-31T08:18:32;1.67;;;0.70;;
65182;SDS011;51771;51.068;-1.780;2023-07-31T08:20:58;2.30;;;0.45;;
65182;SDS011;51771;51.068;-1.780;2023-07-31T08:23:23;2.00;;;0.68;;
65182;SDS011;51771;51.068;-1.780;2023-07-31T08:25:48;2.70;;;0.43;;
65182;SDS011;51771;51.068;-1.780;2023-07-31T08:28:15;1.23;;;0.38;;
65182;SDS011;51771;51.068;-1.780;2023-07-31T08:30:41;1.55;;;0.40;;
65182;SDS011;51771;51.068;-1.780;2023-07-31T08:33:07;2.65;;;0.55;;
65182;SDS011;51771;51.068;-1.780;2023-07-31T08:35:32;2.20;;;0.73;;
65182;SDS011;51771;51.068;-1.780;2023-07-31T08:37:57;2.17;;;0.60;;
65182;SDS011;51771;51.068;-1.780;2023-07-31T08:40:22;1.27;;;0.30;;
65182;SDS011;51771;51.068;-1.780;2023-07-31T08:42:48;5.43;;;0.70;;
65182;SDS011;51771;51.068;-1.780;2023-07-31T08:45:14;2.42;;;0.73;;
65182;SDS011;51771;51.068;-1.780;2023-07-31T08:47:41;1.90;;;0.80;;
65182;SDS011;51771;51.068;-1.780;2023-07-31T08:50:07;3.13;;;0.82;;
65182;SDS011;51771;51.068;-1.780;2023-07-31T08:52:32;3.20;;;0.90;;
65182;SDS011;51771;51.068;-1.780;2023-07-31T08:54:58;3.40;;;1.17;;
65182;SDS011;51771;51.068;-1.780;2023-07-31T08:57:24;3.45;;;1.00;;
65182;SDS011;51771;51.068;-1.780;2023-07-31T08:59:49;5.35;;;1.60;;
65182;SDS011;51771;51.068;-1.780;2023-07-31T09:02:15;4.13;;;1.35;;
65182;SDS011;51771;51.068;-1.780;2023-07-31T09:04:41;6.22;;;1.15;;
65182;SDS011;51771;51.068;-1.780;2023-07-31T09:07:06;5.43;;;1.40;;
65182;SDS011;51771;51.068;-1.780;2023-07-31T09:09:34;3.13;;;0.90;;
65182;SDS011;51771;51.068;-1.780;2023-07-31T09:11:59;4.93;;;1.05;;
65182;SDS011;51771;51.068;-1.780;2023-07-31T09:14:25;3.92;;;1.02;;
65182;SDS011;51771;51.068;-1.780;2023-07-31T09:16:57;4.35;;;0.95;;
65182;SDS011;51771;51.068;-1.780;2023-07-31T09:19:27;3.95;;;1.20;;
65182;SDS011;51771;51.068;-1.780;2023-07-31T09:21:52;6.50;;;1.35;;
65182;SDS011;51771;51.068;-1.780;2023-07-31T09:24:30;5.87;;;1.30;;
65182;SDS011;51771;51.068;-1.780;2023-07-31T09:26:56;4.90;;;1.20;;
65182;SDS011;51771;51.068;-1.780;2023-07-31T09:29:23;5.53;;;1.83;;
65182;SDS011;51771;51.068;-1.780;2023-07-31T09:31:48;3.65;;;1.00;;
65182;SDS011;51771;51.068;-1.780;2023-07-31T09:34:14;4.53;;;1.23;;
65182;SDS011;51771;51.068;-1.780;2023-07-31T09:36:39;5.88;;;1.10;;
65182;SDS011;51771;51.068;-1.780;2023-07-31T09:39:05;3.22;;;1.10;;
65182;SDS011;51771;51.068;-1.780;2023-07-31T09:41:30;3.58;;;0.93;;
65182;SDS011;51771;51.068;-1.780;2023-07-31T09:43:56;2.97;;;0.98;;
65182;SDS011;51771;51.068;-1.780;2023-07-31T09:46:21;3.20;;;1.38;;
65182;SDS011;51771;51.068;-1.780;2023-07-31T09:48:47;4.22;;;1.10;;
65182;SDS011;51771;51.068;-1.780;2023-07-31T09:51:12;5.78;;;1.40;;
65182;SDS011;51771;51.068;-1.780;2023-07-31T09:53:37;6.50;;;1.05;;
65182;SDS011;51771;51.068;-1.780;2023-07-31T09:56:02;3.83;;;1.20;;
65182;SDS011;51771;51.068;-1.780;2023-07-31T09:58:28;3.03;;;0.90;;
65182;SDS011;51771;51.068;-1.780;2023-07-31T10:00:54;2.45;;;1.00;;
65182;SDS011;51771;51.068;-1.780;2023-07-31T10:03:24;3.45;;;0.95;;
65182;SDS011;51771;51.068;-1.780;2023-07-31T10:05:52;3.50;;;0.77;;
65182;SDS011;51771;51.068;-1.780;2023-07-31T10:08:18;3.40;;;1.10;;
65182;SDS011;51771;51.068;-1.780;2023-07-31T10:10:45;5.68;;;1.15;;
65182;SDS011;51771;51.068;-1.780;2023-07-31T10:13:12;2.22;;;0.77;;
65182;SDS011;51771;51.068;-1.780;2023-07-31T10:15:37;15.15;;;1.63;;
65182;SDS011;51771;51.068;-1.780;2023-07-31T10:18:03;2.17;;;0.85;;
65182;SDS011;51771;51.068;-1.780;2023-07-31T10:20:30;2.85;;;0.93;;
65182;SDS011;51771;51.068;-1.780;2023-07-31T10:22:56;3.75;;;1.25;;
65182;SDS011;51771;51.068;-1.780;2023-07-31T10:25:22;3.85;;;1.10;;
65182;SDS011;51771;51.068;-1.780;2023-07-31T10:27:47;7.03;;;1.15;;
65182;SDS011;51771;51.068;-1.780;2023-07-31T10:30:14;4.07;;;1.40;;
65182;SDS011;51771;51.068;-1.780;2023-07-31T10:32:40;6.10;;;1.33;;
65182;SDS011;51771;51.068;-1.780;2023-07-31T10:35:06;3.85;;;1.25;;
65182;SDS011;51771;51.068;-1.780;2023-07-31T10:37:40;1.58;;;0.65;;
65182;SDS011;51771;51.068;-1.780;2023-07-31T10:40:11;4.93;;;1.30;;
65182;SDS011;51771;51.068;-1.780;2023-07-31T10:42:48;4.72;;;1.40;;
65182;SDS011;51771;51.068;-1.780;2023-07-31T10:45:13;4.22;;;1.27;;
65182;SDS011;51771;51.068;-1.780;2023-07-31T10:50:20;3.42;;;1.20;;
65182;SDS011;51771;51.068;-1.780;2023-07-31T10:52:53;6.35;;;1.35;;
65182;SDS011;51771;51.068;-1.780;2023-07-31T10:55:26;5.20;;;1.35;;
65182;SDS011;51771;51.068;-1.780;2023-07-31T10:57:52;4.30;;;1.33;;
65182;SDS011;51771;51.068;-1.780;2023-07-31T11:00:21;5.65;;;1.55;;
65182;SDS011;51771;51.068;-1.780;2023-07-31T11:03:00;3.63;;;1.55;;
65182;SDS011;51771;51.068;-1.780;2023-07-31T11:10:32;4.65;;;1.25;;
65182;SDS011;51771;51.068;-1.780;2023-07-31T11:12:59;4.18;;;1.52;;
65182;SDS011;51771;51.068;-1.780;2023-07-31T11:15:26;4.77;;;1.33;;
65182;SDS011;51771;51.068;-1.780;2023-07-31T11:17:51;5.03;;;1.75;;
65182;SDS011;51771;51.068;-1.780;2023-07-31T11:20:16;4.43;;;1.40;;
65182;SDS011;51771;51.068;-1.780;2023-07-31T11:22:42;7.30;;;2.20;;
65182;SDS011;51771;51.068;-1.780;2023-07-31T11:25:07;7.33;;;1.70;;
65182;SDS011;51771;51.068;-1.780;2023-07-31T11:27:38;7.50;;;1.70;;
65182;SDS011;51771;51.068;-1.780;2023-07-31T11:30:03;5.63;;;1.45;;
65182;SDS011;51771;51.068;-1.780;2023-07-31T11:32:29;4.28;;;1.38;;
65182;SDS011;51771;51.068;-1.780;2023-07-31T11:34:54;9.18;;;1.92;;
65182;SDS011;51771;51.068;-1.780;2023-07-31T11:37:20;6.13;;;1.60;;
65182;SDS011;51771;51.068;-1.780;2023-07-31T11:40:00;6.68;;;1.75;;
65182;SDS011;51771;51.068;-1.780;2023-07-31T11:42:26;5.13;;;1.60;;
65182;SDS011;51771;51.068;-1.780;2023-07-31T11:44:51;7.72;;;1.50;;
65182;SDS011;51771;51.068;-1.780;2023-07-31T11:47:16;5.23;;;1.77;;
65182;SDS011;51771;51.068;-1.780;2023-07-31T11:49:41;7.43;;;1.80;;
65182;SDS011;51771;51.068;-1.780;2023-07-31T11:52:07;6.93;;;2.75;;
65182;SDS011;51771;51.068;-1.780;2023-07-31T11:54:32;8.05;;;2.00;;
65182;SDS011;51771;51.068;-1.780;2023-07-31T11:56:57;11.32;;;2.28;;
65182;SDS011;51771;51.068;-1.780;2023-07-31T11:59:25;4.15;;;1.30;;
65182;SDS011;51771;51.068;-1.780;2023-07-31T12:01:51;11.13;;;2.88;;
65182;SDS011;51771;51.068;-1.780;2023-07-31T12:04:18;5.32;;;1.88;;
65182;SDS011;51771;51.068;-1.780;2023-07-31T12:06:44;4.97;;;1.85;;
65182;SDS011;51771;51.068;-1.780;2023-07-31T12:09:10;8.80;;;2.08;;
65182;SDS011;51771;51.068;-1.780;2023-07-31T12:11:44;8.60;;;2.03;;
65182;SDS011;51771;51.068;-1.780;2023-07-31T12:14:23;9.35;;;2.30;;
65182;SDS011;51771;51.068;-1.780;2023-07-31T12:16:53;8.80;;;2.38;;
65182;SDS011;51771;51.068;-1.780;2023-07-31T12:19:19;5.82;;;2.10;;
65182;SDS011;51771;51.068;-1.780;2023-07-31T12:21:44;6.78;;;2.50;;
65182;SDS011;51771;51.068;-1.780;2023-07-31T12:24:09;8.37;;;2.43;;
65182;SDS011;51771;51.068;-1.780;2023-07-31T12:26:35;6.70;;;1.80;;
65182;SDS011;51771;51.068;-1.780;2023-07-31T12:29:00;7.60;;;2.13;;
65182;SDS011;51771;51.068;-1.780;2023-07-31T12:31:27;9.83;;;1.83;;
65182;SDS011;51771;51.068;-1.780;2023-07-31T12:33:52;9.10;;;2.65;;
65182;SDS011;51771;51.068;-1.780;2023-07-31T12:36:27;7.90;;;2.38;;
65182;SDS011;51771;51.068;-1.780;2023-07-31T12:38:54;6.43;;;2.33;;
65182;SDS011;51771;51.068;-1.780;2023-07-31T12:41:21;8.23;;;2.30;;
65182;SDS011;51771;51.068;-1.780;2023-07-31T12:43:46;7.72;;;2.65;;
65182;SDS011;51771;51.068;-1.780;2023-07-31T12:46:11;5.30;;;2.00;;
65182;SDS011;51771;51.068;-1.780;2023-07-31T12:48:37;5.50;;;1.80;;
65182;SDS011;51771;51.068;-1.780;2023-07-31T12:51:03;6.57;;;1.80;;
65182;SDS011;51771;51.068;-1.780;2023-07-31T12:53:28;10.05;;;2.10;;
65182;SDS011;51771;51.068;-1.780;2023-07-31T12:55:54;6.00;;;1.80;;
65182;SDS011;51771;51.068;-1.780;2023-07-31T12:58:20;8.50;;;3.38;;
65182;SDS011;51771;51.068;-1.780;2023-07-31T13:00:45;8.48;;;2.40;;
65182;SDS011;51771;51.068;-1.780;2023-07-31T13:03:10;7.63;;;2.00;;
65182;SDS011;51771;51.068;-1.780;2023-07-31T13:05:35;7.20;;;2.30;;
65182;SDS011;51771;51.068;-1.780;2023-07-31T13:08:01;5.10;;;2.03;;
65182;SDS011;51771;51.068;-1.780;2023-07-31T13:10:26;5.73;;;2.20;;
65182;SDS011;51771;51.068;-1.780;2023-07-31T13:12:52;8.40;;;2.00;;
65182;SDS011;51771;51.068;-1.780;2023-07-31T13:15:17;8.75;;;1.90;;
65182;SDS011;51771;51.068;-1.780;2023-07-31T13:17:43;7.00;;;2.15;;
65182;SDS011;51771;51.068;-1.780;2023-07-31T13:20:08;5.78;;;1.90;;
65182;SDS011;51771;51.068;-1.780;2023-07-31T13:22:34;7.82;;;1.88;;
65182;SDS011;51771;51.068;-1.780;2023-07-31T13:24:59;6.15;;;2.00;;
65182;SDS011;51771;51.068;-1.780;2023-07-31T13:27:24;15.00;;;3.08;;
65182;SDS011;51771;51.068;-1.780;2023-07-31T13:29:50;6.45;;;2.40;;
65182;SDS011;51771;51.068;-1.780;2023-07-31T13:32:15;6.93;;;2.00;;
65182;SDS011;51771;51.068;-1.780;2023-07-31T13:34:41;6.55;;;2.10;;
65182;SDS011;51771;51.068;-1.780;2023-07-31T13:37:06;5.50;;;2.10;;
65182;SDS011;51771;51.068;-1.780;2023-07-31T13:39:32;7.10;;;2.47;;
65182;SDS011;51771;51.068;-1.780;2023-07-31T13:41:58;5.70;;;2.25;;
65182;SDS011;51771;51.068;-1.780;2023-07-31T13:44:23;5.28;;;1.58;;
65182;SDS011;51771;51.068;-1.780;2023-07-31T13:46:48;6.07;;;1.80;;
65182;SDS011;51771;51.068;-1.780;2023-07-31T13:49:14;6.37;;;2.37;;
65182;SDS011;51771;51.068;-1.780;2023-07-31T13:51:39;5.93;;;2.00;;
65182;SDS011;51771;51.068;-1.780;2023-07-31T13:54:04;7.32;;;2.17;;
65182;SDS011;51771;51.068;-1.780;2023-07-31T13:56:31;10.57;;;2.83;;
65182;SDS011;51771;51.068;-1.780;2023-07-31T13:58:56;6.25;;;2.17;;
65182;SDS011;51771;51.068;-1.780;2023-07-31T14:01:22;7.95;;;2.03;;
65182;SDS011;51771;51.068;-1.780;2023-07-31T14:03:47;11.07;;;2.33;;
65182;SDS011;51771;51.068;-1.780;2023-07-31T14:06:12;8.32;;;1.85;;
65182;SDS011;51771;51.068;-1.780;2023-07-31T14:08:37;6.37;;;2.20;;
65182;SDS011;51771;51.068;-1.780;2023-07-31T14:11:02;8.07;;;2.10;;
65182;SDS011;51771;51.068;-1.780;2023-07-31T14:13:28;9.17;;;2.87;;
65182;SDS011;51771;51.068;-1.780;2023-07-31T14:15:53;5.63;;;1.80;;
65182;SDS011;51771;51.068;-1.780;2023-07-31T14:18:18;4.72;;;1.50;;
65182;SDS011;51771;51.068;-1.780;2023-07-31T14:20:44;6.85;;;2.30;;
65182;SDS011;51771;51.068;-1.780;2023-07-31T14:23:09;5.28;;;1.33;;
65182;SDS011;51771;51.068;-1.780;2023-07-31T14:25:34;5.40;;;1.83;;
65182;SDS011;51771;51.068;-1.780;2023-07-31T14:28:00;6.55;;;2.00;;
65182;SDS011;51771;51.068;-1.780;2023-07-31T14:30:25;5.47;;;1.85;;
65182;SDS011;51771;51.068;-1.780;2023-07-31T14:32:51;4.15;;;1.48;;
65182;SDS011;51771;51.068;-1.780;2023-07-31T14:35:16;4.75;;;1.40;;
65182;SDS011;51771;51.068;-1.780;2023-07-31T14:37:42;6.53;;;1.70;;